x

La Have Bank (44150) Wave Buoy

6:00pm - Sun 22nd Jan 2017 All times are AST. -4 hours from GMT.

  • Sig Wave height 4.6ft
  • Peak Period 11s
  • Wind
    18mph, 22mph gusts
  • Sea Temp 45°f
  • Air Temp 37°f
  • Sea Pressure 1012.9mb
  • La Have Bank
  • La Have Bank

More Historic Weather Station data

Upgrade to MSW Pro to gain access to the past 30 days of data for over 8000 Wavebouys and Weather Stations around the globe.

Join Pro

Comparision Forecast

View Surf forecast
   
Sun 01/22 6:00pm 4.5ft 11s 18 22 mph 1012.9mb 45f 37f
5:00pm 4.5ft 11s 16 20 mph 1012.1mb 47f 37f
4:00pm 5.5ft 10s 13 16 mph 1011.6mb 53f 37f
3:00pm 5.5ft 11s 13 16 mph 1010.6mb 53f 37f
2:00pm 5ft 12s 18 22 mph 1009.1mb 52f 37f
1:00pm 6ft 12s 16 18 mph 1009.4mb 51f 37f
12:00pm 7ft 10s 13 18 mph 1009.8mb 50f 37f
11:00am 7ft 12s 16 20 mph 1010mb 47f 38f
10:00am 7ft 11s 13 18 mph 1009.9mb 46f 37f
9:00am 7ft 13s 18 20 mph 1008.7mb 44f 37f
8:00am 7ft 10s 20 25 mph 1008mb 44f 37f
7:00am 6ft 12s 22 29 mph 1007.2mb 43f 38f
6:00am 6ft 6s 18 22 mph 1007mb 42f 37f
5:00am 6ft 12s 20 25 mph 1006.5mb 42f 37f
4:00am 7.5ft 12s 22 29 mph 1006.1mb 42f 37f
3:00am 8ft 12s 25 31 mph 1005.3mb 42f 40f
2:00am 9ft 12s 20 25 mph 1005.1mb 42f 42f
1:00am 8ft 12s 18 22 mph 1005.2mb 44f 44f
12:00am 8.5ft 13s 16 20 mph 1005.6mb 46f 46f
Sat 01/21 11:00pm 8ft 11s 22 27 mph 1006.4mb 46f 46f
10:00pm 7ft 12s 20 27 mph 1006.9mb 44f 45f
9:00pm 7ft 12s 16 18 mph 1007.6mb 43f 44f
8:00pm 6ft 11s 11 13 mph 1007.8mb 42f 43f
7:00pm 6ft 11s 13 18 mph 1008.1mb 42f 42f
6:00pm 5.5ft 12s 13 18 mph 1008.4mb 41f 42f
5:00pm 6ft 12s 16 18 mph 1008.3mb 42f 41f
4:00pm 6ft 12s 11 13 mph 1008.6mb 42f 40f
3:00pm 6.5ft 13s 7 9 mph 1009mb 42f 39f
2:00pm 7ft 12s 4 9 mph 1009.7mb 42f 38f
1:00pm 7ft 11s 4 7 mph 1010.4mb 42f 36f
12:00pm 8ft 11s  -  2 mph 1011.3mb 42f 36f
11:00am 7ft 12s 4 7 mph 1012.6mb 42f 35f
10:00am 7ft 12s 4 9 mph 1013.2mb 42f 35f
9:00am 6.5ft 11s 11 16 mph 1012.9mb 42f 35f
8:00am 6.5ft 11s 16 20 mph 1012.9mb 42f 35f
7:00am 6.5ft 12s 16 22 mph 1012.9mb 42f 35f
6:00am 6ft 10s 16 20 mph 1012.5mb 42f 35f
5:00am 7ft 11s 13 18 mph 1013mb 42f 34f
4:00am 7ft 10s 13 20 mph 1013mb 42f 33f
3:00am 7ft 12s 11 18 mph 1013mb 42f 33f
2:00am 7ft 11s 13 16 mph 1012.9mb 42f 33f
1:00am 7.5ft 11s 11 18 mph 1013.1mb 42f 33f
12:00am 8ft 10s 11 18 mph 1013.4mb 42f 33f
Fri 01/20 11:00pm 7.5ft 11s 11 16 mph 1013.6mb 41f 34f
10:00pm 7.5ft 11s 13 20 mph 1013.9mb 42f 35f
9:00pm 8.5ft 10s 13 18 mph 1014mb 42f 35f
8:00pm 7.5ft 11s 18 22 mph 1013.7mb 42f 34f
7:00pm 7.5ft 10s 18 22 mph 1013.5mb 42f 35f
6:00pm 8.5ft 11s 18 22 mph 1012.9mb 42f 36f
5:00pm 7.5ft 11s 18 22 mph 1012.5mb 42f 36f
4:00pm  -   -  20
mph
- - -
3:00pm 7.5ft 11s 20 27 mph 1011.8mb 42f 37f
2:00pm 7ft 12s 18 25 mph 1011.5mb 42f 37f
1:00pm 8ft 10s 18 22 mph 1011.6mb 42f 37f
12:00pm 7.5ft 10s 18 22 mph 1012.1mb 43f 37f
11:00am 7ft 10s 18 20 mph 1012.9mb 42f 37f
10:00am 7.5ft 9s 18 20 mph 1012.7mb 42f 37f
9:00am 7ft 10s 13 18 mph 1012mb 42f 37f
8:00am 6.5ft 10s 16 20 mph 1011.4mb 42f 37f
7:00am 6ft 11s 13 18 mph 1011.1mb 42f 38f
6:00am 6ft 10s 13 16 mph 1010.9mb 42f 38f
5:00am 6ft 10s 13 18 mph 1011.2mb 43f 38f
4:00am 5.5ft 10s 13 16 mph 1011.5mb 43f 38f
3:00am 6.5ft 11s 13 18 mph 1012.1mb 43f 38f
2:00am 6ft 11s 13 18 mph 1012mb 43f 38f
1:00am 7ft 10s 13 16 mph 1012mb 43f 38f
12:00am 7ft 10s 13 16 mph 1012.1mb 43f 38f
Thu 01/19 10:00pm 8ft 11s 18 20 mph 1012.1mb 43f 38f
9:00pm 7.5ft 10s 18
mph
1012.1mb 43f 38f
8:00pm 8ft 11s 20 25 mph 1012.1mb 43f 37f
6:00pm 8ft 10s 20 25 mph 1011.7mb 44f 38f
5:00pm 8ft 11s 20 25 mph 1011.3mb 44f 39f
4:00pm 7.5ft 8s 20 25 mph 1011mb 44f 39f
3:00pm 8.5ft 10s 18 22 mph 1010.9mb 44f 41f
2:00pm 9ft 8s 13
mph
1011.1mb 45f 41f
1:00pm 9ft 8s 9 13 mph 1011.4mb 46f 42f
12:00pm 9ft 8s 11 16 mph 1012.2mb 46f 43f
11:00am 10ft 8s 16 18 mph 1013.3mb 46f 42f
10:00am 10.5ft 8s 16 22 mph 1014mb 46f 42f
9:00am 10ft 8s 20 22 mph 1013.9mb 45f 42f
8:00am 9ft 8s 22 29 mph 1013.3mb 45f 41f
7:00am 9.5ft 8s 25 29 mph 1013.6mb 44f 40f
6:00am 9.5ft 8s 25 29 mph 1013.3mb 44f 39f
5:00am 9ft 8s 25
mph
1013.6mb 44f 39f
4:00am 9ft 8s 25 31 mph 1013.6mb 43f 39f
3:00am 9ft 8s 25 31 mph 1014mb 43f 40f
2:00am 10ft 8s 27 31 mph 1013.8mb 43f 40f
1:00am 9.5ft 7s 25 29 mph 1014mb 43f 40f
12:00am 9ft 7s 22 29 mph 1014.8mb 43f 40f